createdAt,value
2019-02-21T00:02:20.295Z,3.30
2019-02-21T00:04:47.650Z,3.30
2019-02-21T00:07:14.994Z,3.30
2019-02-21T00:09:42.661Z,3.30
2019-02-21T00:12:10.043Z,3.30
2019-02-21T00:14:37.909Z,3.30
2019-02-21T00:17:05.236Z,3.30
2019-02-21T00:19:32.639Z,3.40
2019-02-21T00:22:00.007Z,3.30
2019-02-21T00:24:27.712Z,3.30
2019-02-21T00:26:55.155Z,3.30
2019-02-21T00:29:22.662Z,3.30
2019-02-21T00:31:50.522Z,3.30
2019-02-21T00:34:17.946Z,3.10
2019-02-21T00:36:45.368Z,3.10
2019-02-21T00:39:12.972Z,3.00
2019-02-21T00:41:40.508Z,2.90
2019-02-21T00:44:08.695Z,2.90
2019-02-21T00:46:36.007Z,2.90
2019-02-21T00:49:03.426Z,2.90
2019-02-21T00:51:30.882Z,2.90
2019-02-21T00:53:58.306Z,2.80
2019-02-21T00:56:25.756Z,2.90
2019-02-21T00:58:53.572Z,2.90
2019-02-21T01:01:21.758Z,2.80
2019-02-21T01:03:49.183Z,2.80
2019-02-21T01:06:16.559Z,2.80
2019-02-21T01:08:44.022Z,2.80
2019-02-21T01:11:11.421Z,2.80
2019-02-21T01:13:39.031Z,2.80
2019-02-21T01:16:06.762Z,2.80
2019-02-21T01:18:34.480Z,2.80
2019-02-21T01:21:01.836Z,2.70
2019-02-21T01:23:29.376Z,2.70
2019-02-21T01:25:57.036Z,2.60
2019-02-21T01:28:24.438Z,2.60
2019-02-21T01:30:56.925Z,2.60
2019-02-21T01:33:21.914Z,2.70
2019-02-21T01:35:49.388Z,2.60
2019-02-21T01:38:16.758Z,2.70
2019-02-21T01:40:44.198Z,2.60
2019-02-21T01:43:11.589Z,2.60
2019-02-21T01:45:39.025Z,2.70
2019-02-21T01:48:06.871Z,2.70
2019-02-21T01:50:34.644Z,2.70
2019-02-21T01:53:01.982Z,2.60
2019-02-21T01:55:29.680Z,2.60
2019-02-21T01:57:57.119Z,2.60
2019-02-21T02:00:25.117Z,2.60
2019-02-21T02:02:52.774Z,2.50
2019-02-21T02:05:20.583Z,2.50
2019-02-21T02:07:48.178Z,2.50
2019-02-21T02:10:15.576Z,2.60
2019-02-21T02:12:43.248Z,2.60
2019-02-21T02:15:11.096Z,2.60
2019-02-21T02:17:38.646Z,2.60
2019-02-21T02:20:06.021Z,2.60
2019-02-21T02:22:33.448Z,2.50
2019-02-21T02:25:00.877Z,2.50
2019-02-21T02:27:28.496Z,2.50
2019-02-21T02:29:55.861Z,2.60
2019-02-21T02:32:23.728Z,2.60
2019-02-21T02:34:51.354Z,2.60
2019-02-21T02:37:18.828Z,2.60
2019-02-21T02:39:46.552Z,2.60
2019-02-21T02:42:14.018Z,2.60
2019-02-21T02:44:42.472Z,2.60
2019-02-21T02:47:09.873Z,2.50
2019-02-21T02:49:37.687Z,2.50
2019-02-21T02:52:05.189Z,2.60
2019-02-21T02:54:32.639Z,2.50
2019-02-21T02:57:00.027Z,2.50
2019-02-21T02:59:40.026Z,2.50
2019-02-21T03:01:57.153Z,2.50
2019-02-21T03:04:24.697Z,2.40
2019-02-21T03:06:52.299Z,2.40
2019-02-21T03:09:19.726Z,2.40
2019-02-21T03:11:47.227Z,2.40
2019-02-21T03:14:14.781Z,2.30
2019-02-21T03:16:42.678Z,2.30
2019-02-21T03:19:10.095Z,2.30
2019-02-21T03:21:37.517Z,2.20
2019-02-21T03:24:05.244Z,2.20
2019-02-21T03:26:32.700Z,2.20
2019-02-21T03:29:00.193Z,2.20
2019-02-21T03:31:27.593Z,2.20
2019-02-21T03:33:55.424Z,2.20
2019-02-21T03:36:22.936Z,2.10
2019-02-21T03:38:51.145Z,2.10
2019-02-21T03:41:18.452Z,2.10
2019-02-21T03:43:45.791Z,2.00
2019-02-21T03:46:13.093Z,2.00
2019-02-21T03:48:40.723Z,2.00
2019-02-21T03:51:08.090Z,1.90
2019-02-21T03:53:35.753Z,1.90
2019-02-21T03:56:03.198Z,1.90
2019-02-21T03:58:30.651Z,1.90
2019-02-21T04:00:58.252Z,1.90
2019-02-21T04:03:25.849Z,1.90
2019-02-21T04:05:53.604Z,1.90
2019-02-21T04:08:21.058Z,1.90
2019-02-21T04:10:48.402Z,1.90
2019-02-21T04:13:15.751Z,1.90
2019-02-21T04:15:43.723Z,1.90
2019-02-21T04:18:11.217Z,1.90
2019-02-21T04:20:38.956Z,1.90
2019-02-21T04:23:06.387Z,1.90
2019-02-21T04:25:33.818Z,1.90
2019-02-21T04:28:01.296Z,2.00
2019-02-21T04:30:29.131Z,2.00
2019-02-21T04:32:56.456Z,2.10
2019-02-21T04:35:23.861Z,2.10
2019-02-21T04:37:51.433Z,2.20
2019-02-21T04:40:18.858Z,2.20
2019-02-21T04:42:46.302Z,2.20
2019-02-21T04:45:13.805Z,2.30
2019-02-21T04:47:41.660Z,2.40
2019-02-21T04:50:09.431Z,2.40
2019-02-21T04:52:36.852Z,2.50
2019-02-21T04:55:04.277Z,2.50
2019-02-21T04:57:31.742Z,2.50
2019-02-21T04:59:59.323Z,2.60
2019-02-21T05:02:29.472Z,2.60
2019-02-21T05:04:56.109Z,2.70
2019-02-21T05:07:23.845Z,2.60
2019-02-21T05:09:57.944Z,2.60
2019-02-21T05:12:20.420Z,2.70
2019-02-21T05:14:48.123Z,2.70
2019-02-21T05:17:15.643Z,2.70
2019-02-21T05:19:43.054Z,2.70
2019-02-21T05:22:10.567Z,2.80
2019-02-21T05:24:37.897Z,2.80
2019-02-21T05:27:09.859Z,2.80
2019-02-21T05:29:37.385Z,2.80
2019-02-21T05:32:11.992Z,2.90
2019-02-21T05:34:50.340Z,2.90
2019-02-21T05:37:46.334Z,2.90
2019-02-21T05:40:31.656Z,3.00
2019-02-21T05:43:37.283Z,2.90
2019-02-21T05:46:24.636Z,3.00
2019-02-21T05:49:07.479Z,3.10
2019-02-21T05:51:39.742Z,3.10
2019-02-21T05:54:32.405Z,3.10
2019-02-21T05:57:25.383Z,3.10
2019-02-21T06:00:10.649Z,3.20
2019-02-21T06:02:55.439Z,3.20
2019-02-21T06:05:42.585Z,3.20
2019-02-21T06:08:32.778Z,3.20
2019-02-21T06:11:14.375Z,3.20
2019-02-21T06:13:59.378Z,3.30
2019-02-21T06:16:34.200Z,3.30
2019-02-21T06:19:29.972Z,3.20
2019-02-21T06:22:10.643Z,3.30
2019-02-21T06:24:44.542Z,3.30
2019-02-21T06:27:34.712Z,3.30
2019-02-21T06:30:09.470Z,3.30
2019-02-21T06:32:37.134Z,3.30
2019-02-21T06:35:05.147Z,3.30
2019-02-21T06:37:33.005Z,3.30
2019-02-21T06:40:00.703Z,3.30
2019-02-21T06:42:28.315Z,3.30
2019-02-21T06:44:55.702Z,3.30
2019-02-21T06:47:23.100Z,3.30
2019-02-21T06:49:50.556Z,3.40
2019-02-21T06:52:17.923Z,3.40
2019-02-21T06:54:45.290Z,3.40
2019-02-21T06:57:12.952Z,3.40
2019-02-21T06:59:44.499Z,3.40
2019-02-21T07:02:09.779Z,3.40
2019-02-21T07:04:37.364Z,3.40
2019-02-21T07:07:04.658Z,3.50
2019-02-21T07:09:32.204Z,3.50
2019-02-21T07:11:59.599Z,3.50
2019-02-21T07:14:26.934Z,3.50
2019-02-21T07:16:54.311Z,3.60
2019-02-21T07:19:22.056Z,3.60
2019-02-21T07:21:49.373Z,3.70
2019-02-21T07:24:18.125Z,3.70
2019-02-21T07:26:45.614Z,3.70
2019-02-21T07:29:13.033Z,3.70
2019-02-21T07:31:40.700Z,3.80
2019-02-21T07:34:08.043Z,3.80
2019-02-21T07:36:35.429Z,3.80
2019-02-21T07:39:16.480Z,3.90
2019-02-21T07:41:33.379Z,3.90
2019-02-21T07:44:11.296Z,4.00
2019-02-21T07:46:32.309Z,4.00
2019-02-21T07:48:59.573Z,4.10
2019-02-21T07:51:26.971Z,4.10
2019-02-21T07:53:54.391Z,4.20
2019-02-21T07:56:21.871Z,4.20
2019-02-21T07:58:49.234Z,4.30
2019-02-21T08:01:17.622Z,4.30
2019-02-21T08:03:48.298Z,4.40
2019-02-21T08:06:14.304Z,4.50
2019-02-21T08:08:41.685Z,4.50
2019-02-21T08:11:09.400Z,4.50
2019-02-21T08:13:37.081Z,4.60
2019-02-21T08:16:04.361Z,4.70
2019-02-21T08:18:31.805Z,4.70
2019-02-21T08:20:59.280Z,4.80
2019-02-21T08:23:26.712Z,4.90
2019-02-21T08:25:54.369Z,4.90
2019-02-21T08:28:22.065Z,5.00
2019-02-21T08:30:49.373Z,5.10
2019-02-21T08:33:21.482Z,5.20
2019-02-21T08:35:48.964Z,5.30
2019-02-21T08:38:16.344Z,5.30
2019-02-21T08:40:43.649Z,5.40
2019-02-21T08:43:11.005Z,5.40
2019-02-21T08:45:38.724Z,5.50
2019-02-21T08:48:06.029Z,5.60
2019-02-21T08:50:33.593Z,5.60
2019-02-21T08:53:01.332Z,5.70
2019-02-21T08:55:28.728Z,5.80
2019-02-21T08:57:56.521Z,5.80
2019-02-21T09:00:23.955Z,5.90
2019-02-21T09:02:51.326Z,6.00
2019-02-21T09:05:19.049Z,6.10
2019-02-21T09:07:46.754Z,6.20
2019-02-21T09:10:14.195Z,6.40
2019-02-21T09:12:41.626Z,6.50
2019-02-21T09:15:11.423Z,6.70
2019-02-21T09:17:38.817Z,6.70
2019-02-21T09:20:06.995Z,6.80
2019-02-21T09:22:34.964Z,6.90
2019-02-21T09:25:02.919Z,6.90
2019-02-21T09:27:30.781Z,7.00
2019-02-21T09:29:58.499Z,7.00
2019-02-21T09:32:25.813Z,7.00
2019-02-21T09:34:53.283Z,7.00
2019-02-21T09:37:20.797Z,7.00
2019-02-21T09:39:48.216Z,7.00
2019-02-21T09:42:15.884Z,7.00
2019-02-21T09:44:43.641Z,7.00
2019-02-21T09:47:11.233Z,7.00
2019-02-21T09:49:38.649Z,7.10
2019-02-21T09:52:06.065Z,7.10
2019-02-21T09:54:33.492Z,7.20
2019-02-21T09:57:12.479Z,7.20
2019-02-21T09:59:30.475Z,7.30
2019-02-21T10:01:57.896Z,7.40
2019-02-21T10:04:32.197Z,7.50
2019-02-21T10:06:54.947Z,7.50
2019-02-21T10:09:22.222Z,7.60
2019-02-21T10:11:49.949Z,7.60
2019-02-21T10:14:17.403Z,7.60
2019-02-21T10:16:44.713Z,7.60
2019-02-21T10:19:12.113Z,7.60
2019-02-21T10:21:39.477Z,7.60
2019-02-21T10:24:06.878Z,7.70
2019-02-21T10:26:34.465Z,7.70
2019-02-21T10:29:01.787Z,7.80
2019-02-21T10:31:29.484Z,7.80
2019-02-21T10:33:56.918Z,7.90
2019-02-21T10:36:24.659Z,8.00
2019-02-21T10:38:51.940Z,8.10
2019-02-21T10:41:19.497Z,8.20
2019-02-21T10:43:46.965Z,8.30
2019-02-21T10:46:14.355Z,8.40
2019-02-21T10:48:41.907Z,8.40
2019-02-21T10:51:09.296Z,8.50
2019-02-21T10:53:36.732Z,8.50
2019-02-21T10:56:04.090Z,8.50
2019-02-21T10:58:31.440Z,8.60
2019-02-21T11:00:58.871Z,8.60
2019-02-21T11:03:26.566Z,8.70
2019-02-21T11:05:53.889Z,8.80
2019-02-21T11:08:21.183Z,9.10
2019-02-21T11:10:49.127Z,9.40
2019-02-21T11:13:16.529Z,9.60
2019-02-21T11:15:43.986Z,9.80
2019-02-21T11:18:11.415Z,9.90
2019-02-21T11:20:38.710Z,9.90
2019-02-21T11:23:06.667Z,10.00
2019-02-21T11:25:34.546Z,10.10
2019-02-21T11:28:01.978Z,10.10
2019-02-21T11:30:29.605Z,10.10
2019-02-21T11:32:57.068Z,10.20
2019-02-21T11:35:24.742Z,10.20
2019-02-21T11:37:52.075Z,10.30
2019-02-21T11:40:19.786Z,10.40
2019-02-21T11:42:47.223Z,10.60
2019-02-21T11:45:15.330Z,10.80
2019-02-21T11:47:43.071Z,11.00
2019-02-21T11:50:12.025Z,11.20
2019-02-21T11:52:39.452Z,11.20
2019-02-21T11:55:08.001Z,11.20
2019-02-21T11:57:35.450Z,11.20
2019-02-21T12:00:05.537Z,11.20
2019-02-21T12:02:38.776Z,11.20
2019-02-21T12:05:02.203Z,11.20
2019-02-21T12:07:29.560Z,11.20
2019-02-21T12:09:56.871Z,11.30
2019-02-21T12:12:24.557Z,11.40
2019-02-21T12:14:52.188Z,11.60
2019-02-21T12:17:19.527Z,11.70
2019-02-21T12:19:47.268Z,11.70
2019-02-21T12:22:14.614Z,11.80
2019-02-21T12:24:42.279Z,11.90
2019-02-21T12:27:09.741Z,11.90
2019-02-21T12:29:38.114Z,11.90
2019-02-21T12:32:06.243Z,11.90
2019-02-21T12:34:33.543Z,11.90
2019-02-21T12:37:00.871Z,11.90
2019-02-21T12:39:28.214Z,11.90
2019-02-21T12:41:55.917Z,11.90
2019-02-21T12:44:23.314Z,12.00
2019-02-21T12:46:50.916Z,12.10
2019-02-21T12:49:18.312Z,12.30
2019-02-21T12:51:46.085Z,12.40
2019-02-21T12:54:13.838Z,12.40
2019-02-21T12:56:41.575Z,12.50
2019-02-21T12:59:09.003Z,12.60
2019-02-21T13:01:36.900Z,12.70
2019-02-21T13:04:05.007Z,12.90
2019-02-21T13:06:32.598Z,13.00
2019-02-21T13:08:59.924Z,13.10
2019-02-21T13:11:27.338Z,13.10
2019-02-21T13:13:55.269Z,13.20
2019-02-21T13:16:22.649Z,13.10
2019-02-21T13:18:50.679Z,13.10
2019-02-21T13:21:18.262Z,13.00
2019-02-21T13:23:45.715Z,13.00
2019-02-21T13:26:13.092Z,13.00
2019-02-21T13:28:40.435Z,12.90
2019-02-21T13:31:07.862Z,12.80
2019-02-21T13:33:35.419Z,12.90
2019-02-21T13:36:04.049Z,13.00
2019-02-21T13:38:31.434Z,13.10
2019-02-21T13:40:59.137Z,13.20
2019-02-21T13:43:26.847Z,13.20
2019-02-21T13:45:54.465Z,13.30
2019-02-21T13:48:22.302Z,13.30
2019-02-21T13:50:49.619Z,13.30
2019-02-21T13:53:17.454Z,13.30
2019-02-21T13:55:44.786Z,13.30
2019-02-21T13:58:12.511Z,13.30
2019-02-21T14:00:40.251Z,13.30
2019-02-21T14:03:08.144Z,13.50
2019-02-21T14:05:35.977Z,13.70
2019-02-21T14:08:07.583Z,14.00
2019-02-21T14:10:34.919Z,14.10
2019-02-21T14:13:02.258Z,14.20
2019-02-21T14:15:29.602Z,14.20
2019-02-21T14:17:57.310Z,14.50
2019-02-21T14:20:25.034Z,14.70
2019-02-21T14:22:52.436Z,14.80
2019-02-21T14:25:19.856Z,14.80
2019-02-21T14:27:47.472Z,15.00
2019-02-21T14:30:15.985Z,15.10
2019-02-21T14:32:43.456Z,15.20
2019-02-21T14:35:11.467Z,15.10
2019-02-21T14:37:38.872Z,15.20
2019-02-21T14:40:07.748Z,15.40
2019-02-21T14:42:35.616Z,15.50
2019-02-21T14:45:04.245Z,15.50
2019-02-21T14:47:31.751Z,15.60
2019-02-21T14:49:59.278Z,15.70
2019-02-21T14:52:26.958Z,15.80
2019-02-21T14:54:54.481Z,15.90
2019-02-21T14:57:22.587Z,16.00
2019-02-21T14:59:50.365Z,16.10
2019-02-21T15:02:18.442Z,15.90
2019-02-21T15:04:46.120Z,15.70
2019-02-21T15:07:13.581Z,15.60
2019-02-21T15:09:40.994Z,15.50
2019-02-21T15:12:08.549Z,15.50
2019-02-21T15:14:37.281Z,15.50
2019-02-21T15:17:04.741Z,15.50
2019-02-21T15:19:32.239Z,15.40
2019-02-21T15:21:59.632Z,15.30
2019-02-21T15:24:27.297Z,15.20
2019-02-21T15:26:54.706Z,15.10
2019-02-21T15:29:23.019Z,15.00
2019-02-21T15:31:50.651Z,14.90
2019-02-21T15:34:18.134Z,14.70
2019-02-21T15:36:45.618Z,14.60
2019-02-21T15:39:13.043Z,14.60
2019-02-21T15:41:40.388Z,14.50
2019-02-21T15:44:07.723Z,14.70
2019-02-21T15:46:35.308Z,14.80
2019-02-21T15:49:03.025Z,14.90
2019-02-21T15:51:30.623Z,15.00
2019-02-21T15:53:58.462Z,14.80
2019-02-21T15:56:26.131Z,14.60
2019-02-21T15:58:53.972Z,14.50
2019-02-21T16:01:21.554Z,14.40
2019-02-21T16:03:48.957Z,14.20
2019-02-21T16:06:16.890Z,14.10
2019-02-21T16:08:44.489Z,14.10
2019-02-21T16:11:11.775Z,14.00
2019-02-21T16:13:39.904Z,14.00
2019-02-21T16:16:08.018Z,13.90
2019-02-21T16:18:35.445Z,13.80
2019-02-21T16:21:02.979Z,13.80
2019-02-21T16:23:30.701Z,13.70
2019-02-21T16:25:58.389Z,13.70
2019-02-21T16:28:26.030Z,13.70
2019-02-21T16:30:53.941Z,13.60
2019-02-21T16:33:21.771Z,13.50
2019-02-21T16:35:49.063Z,13.50
2019-02-21T16:38:16.785Z,13.40
2019-02-21T16:40:44.223Z,13.40
2019-02-21T16:43:11.616Z,13.30
2019-02-21T16:45:43.780Z,13.20
2019-02-21T16:48:08.674Z,13.20
2019-02-21T16:50:36.387Z,13.10
2019-02-21T16:53:03.831Z,13.00
2019-02-21T16:55:31.249Z,13.00
2019-02-21T16:57:58.724Z,12.90
2019-02-21T17:00:37.274Z,12.90
2019-02-21T17:02:55.628Z,12.80
2019-02-21T17:05:23.211Z,12.80
2019-02-21T17:07:50.965Z,12.70
2019-02-21T17:10:18.606Z,12.70
2019-02-21T17:12:46.054Z,12.70
2019-02-21T17:15:13.489Z,12.60
2019-02-21T17:17:40.977Z,12.60
2019-02-21T17:20:10.194Z,12.50
2019-02-21T17:22:38.230Z,12.40
2019-02-21T17:25:06.159Z,12.40
2019-02-21T17:27:34.156Z,12.30
2019-02-21T17:30:02.214Z,12.30
2019-02-21T17:32:29.634Z,12.20
2019-02-21T17:34:57.399Z,12.20
2019-02-21T17:37:25.474Z,12.20
2019-02-21T17:39:53.049Z,12.10
2019-02-21T17:42:21.104Z,12.00
2019-02-21T17:44:49.406Z,12.00
2019-02-21T17:47:17.226Z,11.90
2019-02-21T17:49:44.724Z,11.80
2019-02-21T17:52:12.943Z,11.80
2019-02-21T17:54:40.594Z,11.70
2019-02-21T17:57:08.737Z,11.70
2019-02-21T17:59:36.116Z,11.70
2019-02-21T18:02:03.753Z,11.70
2019-02-21T18:04:31.140Z,11.70
2019-02-21T18:06:58.540Z,11.60
2019-02-21T18:09:26.091Z,11.60
2019-02-21T18:11:53.710Z,11.60
2019-02-21T18:14:21.149Z,11.60
2019-02-21T18:16:48.516Z,11.60
2019-02-21T18:19:16.151Z,11.60
2019-02-21T18:21:43.490Z,11.50
2019-02-21T18:24:11.006Z,11.50
2019-02-21T18:26:38.439Z,11.50
2019-02-21T18:29:06.166Z,11.50
2019-02-21T18:31:33.589Z,11.40
2019-02-21T18:34:01.031Z,11.40
2019-02-21T18:36:28.432Z,11.40
2019-02-21T18:38:56.112Z,11.40
2019-02-21T18:41:23.531Z,11.40
2019-02-21T18:43:51.217Z,11.40
2019-02-21T18:46:18.531Z,11.30
2019-02-21T18:48:46.032Z,11.30
2019-02-21T18:51:13.525Z,11.40
2019-02-21T18:53:41.003Z,11.40
2019-02-21T18:56:08.688Z,11.40
2019-02-21T18:58:37.091Z,11.40
2019-02-21T19:01:04.762Z,11.40
2019-02-21T19:03:32.648Z,11.40
2019-02-21T19:05:59.985Z,11.40
2019-02-21T19:08:27.346Z,11.40
2019-02-21T19:10:55.446Z,11.40
2019-02-21T19:13:23.093Z,11.40
2019-02-21T19:15:50.923Z,11.20
2019-02-21T19:18:19.345Z,11.20
2019-02-21T19:20:47.017Z,11.10
2019-02-21T19:23:14.664Z,11.00
2019-02-21T19:25:42.044Z,10.90
2019-02-21T19:28:09.685Z,10.90
2019-02-21T19:30:46.489Z,10.90
2019-02-21T19:33:14.237Z,10.90
2019-02-21T19:35:41.989Z,10.90
2019-02-21T19:38:10.895Z,10.80
2019-02-21T19:40:38.365Z,10.80
2019-02-21T19:43:06.071Z,10.80
2019-02-21T19:45:33.590Z,10.80
2019-02-21T19:48:03.923Z,10.80
2019-02-21T19:50:30.960Z,10.70
2019-02-21T19:52:58.719Z,10.70
2019-02-21T19:55:26.477Z,10.80
2019-02-21T19:57:54.246Z,10.70
2019-02-21T20:00:30.512Z,10.70
2019-02-21T20:02:57.950Z,10.70
2019-02-21T20:05:25.382Z,10.70
2019-02-21T20:07:53.051Z,10.70
2019-02-21T20:10:20.537Z,10.80
2019-02-21T20:12:48.485Z,10.80
2019-02-21T20:15:15.939Z,10.80
2019-02-21T20:17:43.709Z,10.70
2019-02-21T20:20:12.160Z,10.70
2019-02-21T20:22:39.602Z,10.70
2019-02-21T20:25:06.978Z,10.70
2019-02-21T20:27:34.674Z,10.70
2019-02-21T20:30:02.121Z,10.60
2019-02-21T20:32:29.773Z,10.60
2019-02-21T20:34:57.841Z,10.60
2019-02-21T20:37:25.432Z,10.50
2019-02-21T20:39:55.038Z,10.50
2019-02-21T20:42:22.215Z,10.50
2019-02-21T20:44:50.016Z,10.40
2019-02-21T20:47:24.668Z,10.30
2019-02-21T20:49:52.298Z,10.30
2019-02-21T20:52:19.598Z,10.20
2019-02-21T20:54:47.309Z,10.20
2019-02-21T20:57:14.919Z,10.10
2019-02-21T20:59:42.477Z,10.10
2019-02-21T21:02:09.942Z,10.10
2019-02-21T21:04:37.427Z,10.10
2019-02-21T21:07:05.120Z,10.10
2019-02-21T21:09:32.589Z,10.20
2019-02-21T21:12:00.107Z,10.20
2019-02-21T21:14:27.612Z,10.30
2019-02-21T21:16:55.362Z,10.20
2019-02-21T21:19:22.810Z,10.30
2019-02-21T21:21:50.526Z,10.30
2019-02-21T21:24:17.870Z,10.40
2019-02-21T21:26:45.344Z,10.40
2019-02-21T21:29:14.016Z,10.50
2019-02-21T21:31:41.651Z,10.50
2019-02-21T21:34:09.368Z,10.60
2019-02-21T21:36:36.958Z,10.60
2019-02-21T21:39:04.680Z,10.60
2019-02-21T21:41:33.057Z,10.60
2019-02-21T21:44:00.581Z,10.60
2019-02-21T21:46:28.094Z,10.60
2019-02-21T21:48:55.475Z,10.60
2019-02-21T21:51:23.511Z,10.60
2019-02-21T21:53:50.970Z,10.60
2019-02-21T21:56:18.347Z,10.60
2019-02-21T21:58:45.812Z,10.60
2019-02-21T22:01:13.607Z,10.60
2019-02-21T22:03:41.589Z,10.60
2019-02-21T22:06:09.302Z,10.60
2019-02-21T22:08:36.703Z,10.60
2019-02-21T22:11:04.160Z,10.60
2019-02-21T22:13:31.858Z,10.60
2019-02-21T22:15:59.422Z,10.60
2019-02-21T22:18:26.902Z,10.60
2019-02-21T22:20:54.919Z,10.50
2019-02-21T22:23:22.331Z,10.50
2019-02-21T22:25:49.814Z,10.50
2019-02-21T22:28:17.294Z,10.50
2019-02-21T22:30:45.251Z,10.50
2019-02-21T22:33:12.870Z,10.40
2019-02-21T22:35:40.402Z,10.40
2019-02-21T22:38:08.058Z,10.30
2019-02-21T22:40:35.763Z,10.30
2019-02-21T22:43:03.162Z,10.30
2019-02-21T22:45:30.625Z,10.30
2019-02-21T22:47:58.742Z,10.30
2019-02-21T22:50:26.988Z,10.30
2019-02-21T22:52:54.529Z,10.30
2019-02-21T22:55:21.964Z,10.30
2019-02-21T22:57:49.619Z,10.30
2019-02-21T23:01:01.693Z,10.30
2019-02-21T23:03:57.268Z,10.40
2019-02-21T23:07:16.937Z,10.40
2019-02-21T23:09:44.493Z,10.40
2019-02-21T23:12:12.083Z,10.40
2019-02-21T23:14:39.473Z,10.40
2019-02-21T23:17:06.835Z,10.40
2019-02-21T23:19:34.189Z,10.40
2019-02-21T23:22:01.652Z,10.40
2019-02-21T23:24:29.166Z,10.40
2019-02-21T23:26:56.713Z,10.40
2019-02-21T23:29:24.137Z,10.30
2019-02-21T23:31:51.796Z,10.30
2019-02-21T23:34:47.748Z,10.30
2019-02-21T23:37:15.372Z,10.20
2019-02-21T23:39:42.831Z,10.20
2019-02-21T23:42:10.686Z,10.20
2019-02-21T23:44:38.141Z,10.10
2019-02-21T23:47:05.472Z,10.10
2019-02-21T23:49:32.844Z,10.00
2019-02-21T23:52:00.717Z,10.00
2019-02-21T23:54:28.123Z,9.90
2019-02-21T23:56:55.580Z,9.90
2019-02-21T23:59:22.986Z,9.80
